createdAt,value
2019-04-04T00:00:16.359Z,87.46
2019-04-04T00:01:17.102Z,88.14
2019-04-04T00:02:17.112Z,87.11
2019-04-04T00:03:15.471Z,87.93
2019-04-04T00:04:15.484Z,87.83
2019-04-04T00:05:15.470Z,87.63
2019-04-04T00:06:15.431Z,88.04
2019-04-04T00:07:15.422Z,87.35
2019-04-04T00:08:15.411Z,87.52
2019-04-04T00:09:15.402Z,87.32
2019-04-04T00:10:15.413Z,87.93
2019-04-04T00:11:15.382Z,87.52
2019-04-04T00:12:15.367Z,88.14
2019-04-04T00:13:15.365Z,87.83
2019-04-04T00:14:15.348Z,88.24
2019-04-04T00:15:15.533Z,87.83
2019-04-04T00:16:15.907Z,88.04
2019-04-04T00:17:15.307Z,87.98
2019-04-04T00:18:15.300Z,88.04
2019-04-04T00:19:15.286Z,88.49
2019-04-04T00:20:15.325Z,88.24
2019-04-04T00:21:15.264Z,88.56
2019-04-04T00:22:15.256Z,88.49
2019-04-04T00:23:15.241Z,88.56
2019-04-04T00:24:15.229Z,87.32
2019-04-04T00:25:15.243Z,87.46
2019-04-04T00:26:15.204Z,87.32
2019-04-04T00:27:15.213Z,87.83
2019-04-04T00:28:15.531Z,87.83
2019-04-04T00:29:17.244Z,88.45
2019-04-04T00:30:16.134Z,88.04
2019-04-04T00:31:15.160Z,88.04
2019-04-04T00:32:15.139Z,87.93
2019-04-04T00:33:15.128Z,88.14
2019-04-04T00:34:15.115Z,87.42
2019-04-04T00:35:15.139Z,87.52
2019-04-04T00:36:15.092Z,87.83
2019-04-04T00:37:15.082Z,87.83
2019-04-04T00:38:15.085Z,87.73
2019-04-04T00:39:15.058Z,87.21
2019-04-04T00:40:15.069Z,86.87
2019-04-04T00:41:15.033Z,87.38
2019-04-04T00:42:16.963Z,87.79
2019-04-04T00:43:15.013Z,87.01
2019-04-04T00:44:15.017Z,87.01
2019-04-04T00:45:15.013Z,86.80
2019-04-04T00:46:14.977Z,86.80
2019-04-04T00:47:14.963Z,87.11
2019-04-04T00:48:14.952Z,87.93
2019-04-04T00:49:14.944Z,87.93
2019-04-04T00:50:14.930Z,87.83
2019-04-04T00:51:14.973Z,87.73
2019-04-04T00:52:14.906Z,87.42
2019-04-04T00:53:14.901Z,86.90
2019-04-04T00:54:14.891Z,86.90
2019-04-04T00:55:15.902Z,86.84
2019-04-04T00:56:16.052Z,87.01
2019-04-04T00:57:14.850Z,86.90
2019-04-04T00:58:14.890Z,87.01
2019-04-04T00:59:14.832Z,86.63
2019-04-04T01:00:14.821Z,87.98
2019-04-04T01:01:14.831Z,87.66
2019-04-04T01:02:14.794Z,87.98
2019-04-04T01:03:14.782Z,87.46
2019-04-04T01:04:14.774Z,87.66
2019-04-04T01:05:14.781Z,87.98
2019-04-04T01:06:14.773Z,87.56
2019-04-04T01:07:14.737Z,88.08
2019-04-04T01:08:14.755Z,87.66
2019-04-04T01:09:14.716Z,87.77
2019-04-04T01:10:14.701Z,87.98
2019-04-04T01:11:14.713Z,87.46
2019-04-04T01:12:14.688Z,87.87
2019-04-04T01:13:14.671Z,86.84
2019-04-04T01:14:14.657Z,87.56
2019-04-04T01:15:14.643Z,87.87
2019-04-04T01:16:14.698Z,87.87
2019-04-04T01:17:14.619Z,87.66
2019-04-04T01:18:14.618Z,87.42
2019-04-04T01:19:14.598Z,87.32
2019-04-04T01:20:14.589Z,87.93
2019-04-04T01:21:14.602Z,87.83
2019-04-04T01:22:14.568Z,87.42
2019-04-04T01:23:14.558Z,87.56
2019-04-04T01:24:14.544Z,87.42
2019-04-04T01:25:14.555Z,87.11
2019-04-04T01:26:14.539Z,87.26
2019-04-04T01:27:14.504Z,86.90
2019-04-04T01:28:14.496Z,87.01
2019-04-04T01:29:14.483Z,86.60
2019-04-04T01:30:14.474Z,87.01
2019-04-04T01:31:15.016Z,87.42
2019-04-04T01:32:15.103Z,87.83
2019-04-04T01:33:14.436Z,88.04
2019-04-04T01:34:14.425Z,87.63
2019-04-04T01:35:14.416Z,87.32
2019-04-04T01:36:14.408Z,87.83
2019-04-04T01:37:14.416Z,87.11
2019-04-04T01:38:14.377Z,87.93
2019-04-04T01:39:14.366Z,87.42
2019-04-04T01:40:14.362Z,87.83
2019-04-04T01:41:14.371Z,87.52
2019-04-04T01:42:14.374Z,87.66
2019-04-04T01:43:14.321Z,87.56
2019-04-04T01:44:14.310Z,87.01
2019-04-04T01:45:14.327Z,87.42
2019-04-04T01:46:15.349Z,86.53
2019-04-04T01:47:16.651Z,85.91
2019-04-04T01:48:14.263Z,85.71
2019-04-04T01:49:14.253Z,85.60
2019-04-04T01:50:14.240Z,85.50
2019-04-04T01:51:14.239Z,86.12
2019-04-04T01:52:14.267Z,85.75
2019-04-04T01:53:14.214Z,85.39
2019-04-04T01:54:14.199Z,85.64
2019-04-04T01:55:14.195Z,86.05
2019-04-04T01:56:14.172Z,86.32
2019-04-04T01:57:14.189Z,86.43
2019-04-04T01:58:14.153Z,86.02
2019-04-04T01:59:14.165Z,86.32
2019-04-04T02:00:15.106Z,86.47
2019-04-04T02:01:16.313Z,86.63
2019-04-04T02:02:14.156Z,86.43
2019-04-04T02:03:14.100Z,86.22
2019-04-04T02:04:14.084Z,86.53
2019-04-04T02:05:14.092Z,86.53
2019-04-04T02:06:14.060Z,86.94
2019-04-04T02:07:14.073Z,86.32
2019-04-04T02:08:14.039Z,86.57
2019-04-04T02:09:14.052Z,86.57
2019-04-04T02:10:14.013Z,86.88
2019-04-04T02:11:14.004Z,86.94
2019-04-04T02:12:14.017Z,87.50
2019-04-04T02:13:14.008Z,88.02
2019-04-04T02:14:13.998Z,87.60
2019-04-04T02:15:14.832Z,87.29
2019-04-04T02:16:14.947Z,88.02
2019-04-04T02:17:13.962Z,88.02
2019-04-04T02:18:13.946Z,87.92
2019-04-04T02:19:13.909Z,87.81
2019-04-04T02:20:13.900Z,87.74
2019-04-04T02:21:13.894Z,87.50
2019-04-04T02:22:13.874Z,87.92
2019-04-04T02:23:13.891Z,88.47
2019-04-04T02:24:13.873Z,88.22
2019-04-04T02:25:13.850Z,87.95
2019-04-04T02:26:13.830Z,87.92
2019-04-04T02:27:13.818Z,87.74
2019-04-04T02:28:13.832Z,88.26
2019-04-04T02:29:13.799Z,88.26
2019-04-04T02:30:16.001Z,88.37
2019-04-04T02:31:13.775Z,88.98
2019-04-04T02:32:13.771Z,89.09
2019-04-04T02:33:13.787Z,88.89
2019-04-04T02:34:13.740Z,88.26
2019-04-04T02:35:13.735Z,88.53
2019-04-04T02:36:16.588Z,88.37
2019-04-04T02:37:13.707Z,88.02
2019-04-04T02:38:13.720Z,88.22
2019-04-04T02:39:13.683Z,88.12
2019-04-04T02:40:13.688Z,88.47
2019-04-04T02:41:15.395Z,88.32
2019-04-04T02:42:13.646Z,88.57
2019-04-04T02:43:13.665Z,88.32
2019-04-04T02:44:13.626Z,88.53
2019-04-04T02:45:13.632Z,87.81
2019-04-04T02:46:13.642Z,87.71
2019-04-04T02:47:16.867Z,88.12
2019-04-04T02:48:13.661Z,88.12
2019-04-04T02:49:13.567Z,87.81
2019-04-04T02:50:13.555Z,87.92
2019-04-04T02:51:13.553Z,87.29
2019-04-04T02:52:14.196Z,87.92
2019-04-04T02:53:13.555Z,87.46
2019-04-04T02:54:13.519Z,87.92
2019-04-04T02:55:13.507Z,87.77
2019-04-04T02:56:13.487Z,87.98
2019-04-04T02:57:13.476Z,87.15
2019-04-04T02:58:15.063Z,88.08
2019-04-04T02:59:13.452Z,87.66
2019-04-04T03:00:13.448Z,87.05
2019-04-04T03:01:13.453Z,86.84
2019-04-04T03:02:13.418Z,87.56
2019-04-04T03:03:13.431Z,87.77
2019-04-04T03:04:14.406Z,86.74
2019-04-04T03:05:13.384Z,86.53
2019-04-04T03:06:13.373Z,86.22
2019-04-04T03:07:13.374Z,86.43
2019-04-04T03:08:13.353Z,86.74
2019-04-04T03:09:13.368Z,86.63
2019-04-04T03:10:16.518Z,86.53
2019-04-04T03:11:13.316Z,86.43
2019-04-04T03:12:13.347Z,86.53
2019-04-04T03:13:13.296Z,86.94
2019-04-04T03:14:13.304Z,87.56
2019-04-04T03:15:13.307Z,87.15
2019-04-04T03:16:13.261Z,87.05
2019-04-04T03:17:13.248Z,86.94
2019-04-04T03:18:13.238Z,86.84
2019-04-04T03:19:13.293Z,87.26
2019-04-04T03:20:16.370Z,87.87
2019-04-04T03:21:13.201Z,87.77
2019-04-04T03:22:13.207Z,86.94
2019-04-04T03:23:13.183Z,86.84
2019-04-04T03:24:13.193Z,86.43
2019-04-04T03:25:14.915Z,86.94
2019-04-04T03:26:13.143Z,86.63
2019-04-04T03:27:13.168Z,86.02
2019-04-04T03:28:13.121Z,86.02
2019-04-04T03:29:13.133Z,85.81
2019-04-04T03:30:16.225Z,85.50
2019-04-04T03:31:13.085Z,85.44
2019-04-04T03:32:16.044Z,85.75
2019-04-04T03:33:13.081Z,85.64
2019-04-04T03:34:13.373Z,85.33
2019-04-04T03:35:13.047Z,85.85
2019-04-04T03:36:13.041Z,85.64
2019-04-04T03:37:13.037Z,85.13
2019-04-04T03:38:13.326Z,86.05
2019-04-04T03:39:13.032Z,86.05
2019-04-04T03:40:12.997Z,85.95
2019-04-04T03:41:12.974Z,85.85
2019-04-04T03:42:12.966Z,85.95
2019-04-04T03:43:15.909Z,85.75
2019-04-04T03:44:12.966Z,86.68
2019-04-04T03:45:12.926Z,86.57
2019-04-04T03:46:12.948Z,86.68
2019-04-04T03:47:12.904Z,86.88
2019-04-04T03:48:17.042Z,86.57
2019-04-04T03:49:13.904Z,86.98
2019-04-04T03:50:12.871Z,86.57
2019-04-04T03:51:12.918Z,87.19
2019-04-04T03:52:12.868Z,87.08
2019-04-04T03:53:16.264Z,86.78
2019-04-04T03:54:12.827Z,86.74
2019-04-04T03:55:12.860Z,86.53
2019-04-04T03:56:12.798Z,86.43
2019-04-04T03:57:12.785Z,86.02
2019-04-04T03:58:12.779Z,86.02
2019-04-04T03:59:12.773Z,85.91
2019-04-04T04:00:12.779Z,86.43
2019-04-04T04:01:13.384Z,86.02
2019-04-04T04:02:12.737Z,86.02
2019-04-04T04:03:12.722Z,85.91
2019-04-04T04:04:12.741Z,85.19
2019-04-04T04:05:14.710Z,85.71
2019-04-04T04:06:12.685Z,85.19
2019-04-04T04:07:15.060Z,86.02
2019-04-04T04:08:12.663Z,85.91
2019-04-04T04:09:12.698Z,86.22
2019-04-04T04:10:12.666Z,86.02
2019-04-04T04:11:12.632Z,85.71
2019-04-04T04:12:12.616Z,85.81
2019-04-04T04:13:16.166Z,85.95
2019-04-04T04:14:12.611Z,86.16
2019-04-04T04:15:12.683Z,86.05
2019-04-04T04:16:12.580Z,86.05
2019-04-04T04:17:12.724Z,86.98
2019-04-04T04:18:12.563Z,86.36
2019-04-04T04:19:12.537Z,86.43
2019-04-04T04:20:12.556Z,86.12
2019-04-04T04:21:12.511Z,86.12
2019-04-04T04:22:13.078Z,86.02
2019-04-04T04:23:12.492Z,85.91
2019-04-04T04:24:12.483Z,86.43
2019-04-04T04:25:12.493Z,86.22
2019-04-04T04:26:12.456Z,86.02
2019-04-04T04:27:15.390Z,86.02
2019-04-04T04:28:12.436Z,86.02
2019-04-04T04:29:12.421Z,86.22
2019-04-04T04:30:12.446Z,85.91
2019-04-04T04:31:15.297Z,86.02
2019-04-04T04:32:12.394Z,86.53
2019-04-04T04:33:12.372Z,86.43
2019-04-04T04:34:12.364Z,86.32
2019-04-04T04:35:12.389Z,86.02
2019-04-04T04:36:15.286Z,86.22
2019-04-04T04:37:12.326Z,86.22
2019-04-04T04:38:12.326Z,86.12
2019-04-04T04:39:12.307Z,86.02
2019-04-04T04:40:14.977Z,85.91
2019-04-04T04:41:12.306Z,85.91
2019-04-04T04:42:12.276Z,86.02
2019-04-04T04:43:15.285Z,85.91
2019-04-04T04:44:12.253Z,85.85
2019-04-04T04:45:12.601Z,85.85
2019-04-04T04:46:12.224Z,86.16
2019-04-04T04:47:12.222Z,86.16
2019-04-04T04:48:12.203Z,86.05
2019-04-04T04:49:12.206Z,86.61
2019-04-04T04:50:12.224Z,87.13
2019-04-04T04:51:12.769Z,86.92
2019-04-04T04:52:14.390Z,87.85
2019-04-04T04:53:12.145Z,87.95
2019-04-04T04:54:12.138Z,86.61
2019-04-04T04:55:12.296Z,86.71
2019-04-04T04:56:12.135Z,86.41
2019-04-04T04:57:28.160Z,85.99
2019-04-04T04:58:13.093Z,86.61
2019-04-04T04:59:13.342Z,86.92
2019-04-04T05:00:12.089Z,87.48
2019-04-04T05:01:12.078Z,88.06
2019-04-04T05:02:12.041Z,87.85
2019-04-04T05:03:12.052Z,86.71
2019-04-04T05:04:12.020Z,87.02
2019-04-04T05:05:12.011Z,87.65
2019-04-04T05:06:12.041Z,87.85
2019-04-04T05:07:11.981Z,88.16
2019-04-04T05:08:11.973Z,87.85
2019-04-04T05:09:14.068Z,88.06
2019-04-04T05:10:12.972Z,87.95
2019-04-04T05:11:14.387Z,87.95
2019-04-04T05:12:11.924Z,88.26
2019-04-04T05:13:11.912Z,88.20
2019-04-04T05:14:11.900Z,88.20
2019-04-04T05:15:11.890Z,88.61
2019-04-04T05:16:11.905Z,88.31
2019-04-04T05:17:11.891Z,88.31
2019-04-04T05:18:12.135Z,88.41
2019-04-04T05:19:11.846Z,88.82
2019-04-04T05:20:11.831Z,88.20
2019-04-04T05:21:24.138Z,88.57
2019-04-04T05:22:12.807Z,88.61
2019-04-04T05:23:15.197Z,88.71
2019-04-04T05:24:11.787Z,88.31
2019-04-04T05:25:11.780Z,88.31
2019-04-04T05:26:11.788Z,88.51
2019-04-04T05:27:11.754Z,88.82
2019-04-04T05:28:11.753Z,88.82
2019-04-04T05:29:13.943Z,88.41
2019-04-04T05:30:11.723Z,88.45
2019-04-04T05:31:11.766Z,88.45
2019-04-04T05:32:11.694Z,89.17
2019-04-04T05:33:11.695Z,89.23
2019-04-04T05:34:11.686Z,89.13
2019-04-04T05:35:11.667Z,89.65
2019-04-04T05:36:11.652Z,89.03
2019-04-04T05:37:11.682Z,89.44
2019-04-04T05:38:12.423Z,89.48
2019-04-04T05:39:11.615Z,89.59
2019-04-04T05:40:11.603Z,89.07
2019-04-04T05:41:11.596Z,89.17
2019-04-04T05:42:11.611Z,88.96
2019-04-04T05:43:11.568Z,89.69
2019-04-04T05:44:11.586Z,89.65
2019-04-04T05:45:13.889Z,89.86
2019-04-04T05:46:11.537Z,89.59
2019-04-04T05:47:11.549Z,89.59
2019-04-04T05:48:11.512Z,89.69
2019-04-04T05:49:11.520Z,89.79
2019-04-04T05:50:12.100Z,89.89
2019-04-04T05:51:14.950Z,90.62
2019-04-04T05:52:11.521Z,90.52
2019-04-04T05:53:11.457Z,90.52
2019-04-04T05:54:11.443Z,90.47
2019-04-04T05:55:11.438Z,90.20
2019-04-04T05:56:13.009Z,90.78
2019-04-04T05:57:11.445Z,90.47
2019-04-04T05:58:11.400Z,90.68
2019-04-04T05:59:11.392Z,90.72
2019-04-04T06:00:11.377Z,90.47
2019-04-04T06:01:11.375Z,90.78
2019-04-04T06:02:12.077Z,89.54
2019-04-04T06:03:13.016Z,89.86
2019-04-04T06:04:11.372Z,89.75
2019-04-04T06:05:11.332Z,89.23
2019-04-04T06:06:11.307Z,89.23
2019-04-04T06:07:11.319Z,89.34
2019-04-04T06:08:11.311Z,89.44
2019-04-04T06:09:13.996Z,89.50
2019-04-04T06:10:12.223Z,89.09
2019-04-04T06:11:11.253Z,88.78
2019-04-04T06:12:11.297Z,88.37
2019-04-04T06:13:11.240Z,88.98
2019-04-04T06:14:11.213Z,89.09
2019-04-04T06:15:11.276Z,89.29
2019-04-04T06:16:11.191Z,89.19
2019-04-04T06:17:11.207Z,88.57
2019-04-04T06:18:11.909Z,89.29
2019-04-04T06:19:14.116Z,88.98
2019-04-04T06:20:12.874Z,89.15
2019-04-04T06:21:11.131Z,88.32
2019-04-04T06:22:11.143Z,88.12
2019-04-04T06:23:11.175Z,88.64
2019-04-04T06:24:11.099Z,87.71
2019-04-04T06:25:11.111Z,87.71
2019-04-04T06:26:11.077Z,87.29
2019-04-04T06:27:11.072Z,87.81
2019-04-04T06:28:12.007Z,87.40
2019-04-04T06:29:11.041Z,87.35
2019-04-04T06:30:11.029Z,87.56
2019-04-04T06:31:11.018Z,86.84
2019-04-04T06:32:11.011Z,86.94
2019-04-04T06:33:11.018Z,86.63
2019-04-04T06:34:11.012Z,86.32
2019-04-04T06:35:10.972Z,86.53
2019-04-04T06:36:10.961Z,86.74
2019-04-04T06:37:10.973Z,86.74
2019-04-04T06:38:10.962Z,86.53
2019-04-04T06:39:10.930Z,86.43
2019-04-04T06:40:10.917Z,87.15
2019-04-04T06:41:10.904Z,87.77
2019-04-04T06:42:11.367Z,87.15
2019-04-04T06:43:11.767Z,87.35
2019-04-04T06:44:12.891Z,86.53
2019-04-04T06:45:10.860Z,86.43
2019-04-04T06:46:10.853Z,86.29
2019-04-04T06:47:10.842Z,86.74
2019-04-04T06:48:10.846Z,86.53
2019-04-04T06:49:10.812Z,86.43
2019-04-04T06:50:10.805Z,85.97
2019-04-04T06:51:12.030Z,86.43
2019-04-04T06:52:10.775Z,86.18
2019-04-04T06:53:10.794Z,86.70
2019-04-04T06:54:10.753Z,87.01
2019-04-04T06:55:10.743Z,88.04
2019-04-04T06:56:10.731Z,87.63
2019-04-04T06:57:10.747Z,87.15
2019-04-04T06:58:10.733Z,87.93
2019-04-04T06:59:12.158Z,87.63
2019-04-04T07:00:10.691Z,87.63
2019-04-04T07:01:11.282Z,87.83
2019-04-04T07:02:10.663Z,87.73
2019-04-04T07:03:10.699Z,88.04
2019-04-04T07:04:10.641Z,87.93
2019-04-04T07:05:10.972Z,87.73
2019-04-04T07:06:10.947Z,87.21
2019-04-04T07:07:12.521Z,87.93
2019-04-04T07:08:10.620Z,87.73
2019-04-04T07:09:13.346Z,87.73
2019-04-04T07:10:10.581Z,86.87
2019-04-04T07:11:21.053Z,86.39
2019-04-04T07:12:22.304Z,86.66
2019-04-04T07:13:21.738Z,86.45
2019-04-04T07:14:11.522Z,86.24
2019-04-04T07:15:12.474Z,85.73
2019-04-04T07:16:10.500Z,85.94
2019-04-04T07:17:10.540Z,85.94
2019-04-04T07:18:12.224Z,85.73
2019-04-04T07:19:14.280Z,85.83
2019-04-04T07:20:10.459Z,85.83
2019-04-04T07:21:10.455Z,85.73
2019-04-04T07:22:10.433Z,85.83
2019-04-04T07:23:10.431Z,85.94
2019-04-04T07:24:10.438Z,85.83
2019-04-04T07:25:10.403Z,86.24
2019-04-04T07:26:14.568Z,85.83
2019-04-04T07:27:10.387Z,85.73
2019-04-04T07:28:10.371Z,85.73
2019-04-04T07:29:10.420Z,85.83
2019-04-04T07:30:10.350Z,86.45
2019-04-04T07:31:10.332Z,86.76
2019-04-04T07:32:10.325Z,87.59
2019-04-04T07:33:12.725Z,87.69
2019-04-04T07:34:12.106Z,87.90
2019-04-04T07:35:10.301Z,87.90
2019-04-04T07:36:10.286Z,87.75
2019-04-04T07:37:10.266Z,87.99
2019-04-04T07:38:10.256Z,88.17
2019-04-04T07:39:12.326Z,88.26
2019-04-04T07:40:10.286Z,87.85
2019-04-04T07:41:10.218Z,87.85
2019-04-04T07:42:10.215Z,88.17
2019-04-04T07:43:10.201Z,87.85
2019-04-04T07:44:10.212Z,87.54
2019-04-04T07:45:10.175Z,87.03
2019-04-04T07:46:16.721Z,86.72
2019-04-04T07:47:11.151Z,86.72
2019-04-04T07:48:12.259Z,86.93
2019-04-04T07:49:10.161Z,86.72
2019-04-04T07:50:10.120Z,86.61
2019-04-04T07:51:10.107Z,87.34
2019-04-04T07:52:10.097Z,87.34
2019-04-04T07:53:10.086Z,87.03
2019-04-04T07:54:10.133Z,87.44
2019-04-04T07:55:10.959Z,87.75
2019-04-04T07:56:10.061Z,87.96
2019-04-04T07:57:10.056Z,88.26
2019-04-04T07:58:10.029Z,88.37
2019-04-04T07:59:10.023Z,87.96
2019-04-04T08:00:10.039Z,88.02
2019-04-04T08:01:09.999Z,88.17
2019-04-04T08:02:09.985Z,88.47
2019-04-04T08:03:10.012Z,88.02
2019-04-04T08:04:09.968Z,88.64
2019-04-04T08:05:12.883Z,88.33
2019-04-04T08:06:09.937Z,88.53
2019-04-04T08:07:09.941Z,88.33
2019-04-04T08:08:09.919Z,88.74
2019-04-04T08:09:09.907Z,88.02
2019-04-04T08:10:19.986Z,88.02
2019-04-04T08:11:13.180Z,88.23
2019-04-04T08:12:09.915Z,88.23
2019-04-04T08:13:09.860Z,87.81
2019-04-04T08:14:09.893Z,88.95
2019-04-04T08:15:09.868Z,88.59
2019-04-04T08:16:09.830Z,88.80
2019-04-04T08:17:09.815Z,88.70
2019-04-04T08:18:09.805Z,88.95
2019-04-04T08:19:10.331Z,88.80
2019-04-04T08:20:09.817Z,89.25
2019-04-04T08:21:09.769Z,88.90
2019-04-04T08:22:09.856Z,88.08
2019-04-04T08:23:09.749Z,87.92
2019-04-04T08:24:10.283Z,88.08
2019-04-04T08:25:09.955Z,88.18
2019-04-04T08:26:10.153Z,88.29
2019-04-04T08:27:09.716Z,89.22
2019-04-04T08:28:09.699Z,88.90
2019-04-04T08:29:09.682Z,88.08
2019-04-04T08:30:09.745Z,87.57
2019-04-04T08:31:09.974Z,87.05
2019-04-04T08:32:09.649Z,87.67
2019-04-04T08:33:09.641Z,87.36
2019-04-04T08:34:09.634Z,87.15
2019-04-04T08:35:09.639Z,87.57
2019-04-04T08:36:09.605Z,87.40
2019-04-04T08:37:09.623Z,87.46
2019-04-04T08:38:09.656Z,87.98
2019-04-04T08:39:09.604Z,88.39
2019-04-04T08:40:09.712Z,87.87
2019-04-04T08:41:09.568Z,87.57
2019-04-04T08:42:09.549Z,87.46
2019-04-04T08:43:09.527Z,88.18
2019-04-04T08:44:09.513Z,88.18
2019-04-04T08:45:09.524Z,87.46
2019-04-04T08:46:09.495Z,87.46
2019-04-04T08:47:09.478Z,87.57
2019-04-04T08:48:09.471Z,87.05
2019-04-04T08:49:09.479Z,87.26
2019-04-04T08:50:09.467Z,87.36
2019-04-04T08:51:09.436Z,86.68
2019-04-04T08:52:16.465Z,87.57
2019-04-04T08:53:10.410Z,87.05
2019-04-04T08:54:09.402Z,87.36
2019-04-04T08:55:09.390Z,87.05
2019-04-04T08:56:09.403Z,87.94
2019-04-04T08:57:09.375Z,87.77
2019-04-04T08:58:09.354Z,86.33
2019-04-04T08:59:09.342Z,85.82
2019-04-04T09:00:09.335Z,85.82
2019-04-04T09:01:09.346Z,84.27
2019-04-04T09:02:09.311Z,84.48
2019-04-04T09:03:09.305Z,82.93
2019-04-04T09:04:09.353Z,83.04
2019-04-04T09:05:12.073Z,83.55
2019-04-04T09:06:09.301Z,83.04
2019-04-04T09:07:09.253Z,83.14
2019-04-04T09:08:09.245Z,83.45
2019-04-04T09:09:09.264Z,83.45
2019-04-04T09:10:09.220Z,82.25
2019-04-04T09:11:09.242Z,81.60
2019-04-04T09:12:09.198Z,81.23
2019-04-04T09:13:09.195Z,82.11
2019-04-04T09:14:09.177Z,81.91
2019-04-04T09:15:09.251Z,82.35
2019-04-04T09:16:09.212Z,82.25
2019-04-04T09:17:09.152Z,82.32
2019-04-04T09:18:09.165Z,82.53
2019-04-04T09:19:09.120Z,82.11
2019-04-04T09:20:09.697Z,82.42
2019-04-04T09:21:09.141Z,83.45
2019-04-04T09:22:10.942Z,83.70
2019-04-04T09:23:09.075Z,83.55
2019-04-04T09:24:09.066Z,83.55
2019-04-04T09:25:10.618Z,83.25
2019-04-04T09:26:09.067Z,82.42
2019-04-04T09:27:09.031Z,83.45
2019-04-04T09:28:09.023Z,82.83
2019-04-04T09:29:09.007Z,82.53
2019-04-04T09:30:09.033Z,82.01
2019-04-04T09:31:09.015Z,81.49
2019-04-04T09:32:08.974Z,81.60
2019-04-04T09:33:08.966Z,81.15
2019-04-04T09:34:08.954Z,81.19
2019-04-04T09:35:08.939Z,81.19
2019-04-04T09:36:08.953Z,82.59
2019-04-04T09:37:09.016Z,81.35
2019-04-04T09:38:08.917Z,79.85
2019-04-04T09:39:08.895Z,80.12
2019-04-04T09:40:08.884Z,79.85
2019-04-04T09:41:08.900Z,79.54
2019-04-04T09:42:08.862Z,79.91
2019-04-04T09:43:08.875Z,80.53
2019-04-04T09:44:08.846Z,81.46
2019-04-04T09:45:08.833Z,81.15
2019-04-04T09:46:08.867Z,81.05
2019-04-04T09:47:08.804Z,80.74
2019-04-04T09:48:08.795Z,81.15
2019-04-04T09:49:08.781Z,81.35
2019-04-04T09:50:08.848Z,81.11
2019-04-04T09:51:08.766Z,80.08
2019-04-04T09:52:08.779Z,80.60
2019-04-04T09:53:08.738Z,79.88
2019-04-04T09:54:08.756Z,79.36
2019-04-04T09:55:08.714Z,78.85
2019-04-04T09:56:08.713Z,79.26
2019-04-04T09:57:08.717Z,78.64
2019-04-04T09:58:08.681Z,79.47
2019-04-04T09:59:08.675Z,77.72
2019-04-04T10:00:08.690Z,78.54
2019-04-04T10:01:08.658Z,79.22
2019-04-04T10:02:08.666Z,78.61
2019-04-04T10:03:08.633Z,77.68
2019-04-04T10:04:08.615Z,78.40
2019-04-04T10:05:08.602Z,78.50
2019-04-04T10:06:08.592Z,78.81
2019-04-04T10:07:08.602Z,77.99
2019-04-04T10:08:08.583Z,75.42
2019-04-04T10:09:15.653Z,75.32
2019-04-04T10:10:09.543Z,76.04
2019-04-04T10:11:08.545Z,77.06
2019-04-04T10:12:08.548Z,76.97
2019-04-04T10:13:08.510Z,76.04
2019-04-04T10:14:08.501Z,76.97
2019-04-04T10:15:08.532Z,77.51
2019-04-04T10:16:08.480Z,77.72
2019-04-04T10:17:08.492Z,77.31
2019-04-04T10:18:08.455Z,77.41
2019-04-04T10:19:08.445Z,77.10
2019-04-04T10:20:08.454Z,78.54
2019-04-04T10:21:12.280Z,78.92
2019-04-04T10:22:08.433Z,77.82
2019-04-04T10:23:08.399Z,77.51
2019-04-04T10:24:08.386Z,77.62
2019-04-04T10:25:08.395Z,78.09
2019-04-04T10:26:08.367Z,78.33
2019-04-04T10:27:08.377Z,77.58
2019-04-04T10:28:08.342Z,77.06
2019-04-04T10:29:08.333Z,77.06
2019-04-04T10:30:08.327Z,78.13
2019-04-04T10:31:08.307Z,77.99
2019-04-04T10:32:08.349Z,77.27
2019-04-04T10:33:08.287Z,77.17
2019-04-04T10:34:08.280Z,77.06
2019-04-04T10:35:08.262Z,77.17
2019-04-04T10:36:08.256Z,77.58
2019-04-04T10:37:08.263Z,76.55
2019-04-04T10:38:08.231Z,75.93
2019-04-04T10:39:08.261Z,75.32
2019-04-04T10:40:08.205Z,76.76
2019-04-04T10:41:08.196Z,77.37
2019-04-04T10:42:08.208Z,76.86
2019-04-04T10:43:08.176Z,77.31
2019-04-04T10:44:08.161Z,77.82
2019-04-04T10:45:08.152Z,78.64
2019-04-04T10:46:08.143Z,79.05
2019-04-04T10:47:08.186Z,76.90
2019-04-04T10:48:08.138Z,78.13
2019-04-04T10:49:08.403Z,78.44
2019-04-04T10:50:08.094Z,79.57
2019-04-04T10:51:08.080Z,79.47
2019-04-04T10:52:08.124Z,79.36
2019-04-04T10:53:08.101Z,79.26
2019-04-04T10:54:08.047Z,79.57
2019-04-04T10:55:08.037Z,80.29
2019-04-04T10:56:08.024Z,80.49
2019-04-04T10:57:08.017Z,80.08
2019-04-04T10:58:08.041Z,79.36
2019-04-04T10:59:07.993Z,79.67
2019-04-04T11:00:07.984Z,79.98
2019-04-04T11:01:07.983Z,79.67
2019-04-04T11:02:07.967Z,79.98
2019-04-04T11:03:08.056Z,80.39
2019-04-04T11:04:08.247Z,80.91
2019-04-04T11:05:07.923Z,80.70
2019-04-04T11:06:07.912Z,80.46
2019-04-04T11:07:07.901Z,79.94
2019-04-04T11:08:07.939Z,79.74
2019-04-04T11:09:07.881Z,79.88
2019-04-04T11:10:07.881Z,79.77
2019-04-04T11:11:07.921Z,79.43
2019-04-04T11:12:07.842Z,79.74
2019-04-04T11:13:07.859Z,80.05
2019-04-04T11:14:07.821Z,79.63
2019-04-04T11:15:07.811Z,80.05
2019-04-04T11:16:07.815Z,79.53
2019-04-04T11:17:07.792Z,79.02
2019-04-04T11:18:07.801Z,79.84
2019-04-04T11:19:09.758Z,78.30
2019-04-04T11:20:07.757Z,79.02
2019-04-04T11:21:07.768Z,79.53
2019-04-04T11:22:07.740Z,80.05
2019-04-04T11:23:07.742Z,79.94
2019-04-04T11:24:07.708Z,81.04
2019-04-04T11:25:07.697Z,81.24
2019-04-04T11:26:07.698Z,80.32
2019-04-04T11:27:07.674Z,80.32
2019-04-04T11:28:07.687Z,80.63
2019-04-04T11:29:07.667Z,80.93
2019-04-04T11:30:07.640Z,81.04
2019-04-04T11:31:07.630Z,79.25
2019-04-04T11:32:07.619Z,79.49
2019-04-04T11:33:07.617Z,80.01
2019-04-04T11:34:07.619Z,80.93
2019-04-04T11:35:07.584Z,80.52
2019-04-04T11:36:07.587Z,79.49
2019-04-04T11:37:07.561Z,78.88
2019-04-04T11:38:07.562Z,79.49
2019-04-04T11:39:07.565Z,79.08
2019-04-04T11:40:07.554Z,79.29
2019-04-04T11:41:07.515Z,79.19
2019-04-04T11:42:07.505Z,80.01
2019-04-04T11:43:07.507Z,79.70
2019-04-04T11:44:09.320Z,79.49
2019-04-04T11:45:07.470Z,79.63
2019-04-04T11:46:07.460Z,78.78
2019-04-04T11:47:07.447Z,79.33
2019-04-04T11:48:07.457Z,78.81
2019-04-04T11:49:07.453Z,79.94
2019-04-04T11:50:07.418Z,80.01
2019-04-04T11:51:07.401Z,79.91
2019-04-04T11:52:07.392Z,80.52
2019-04-04T11:53:07.382Z,79.63
2019-04-04T11:54:07.398Z,80.15
2019-04-04T11:55:07.358Z,81.28
2019-04-04T11:56:07.346Z,81.18
2019-04-04T11:57:07.334Z,82.51
2019-04-04T11:58:07.325Z,82.06
2019-04-04T11:59:08.276Z,81.24
2019-04-04T12:00:07.318Z,82.62
2019-04-04T12:01:07.293Z,81.38
2019-04-04T12:02:07.286Z,81.07
2019-04-04T12:03:07.270Z,81.04
2019-04-04T12:04:07.283Z,81.04
2019-04-04T12:05:07.258Z,81.18
2019-04-04T12:06:07.236Z,81.38
2019-04-04T12:07:07.228Z,81.65
2019-04-04T12:08:07.214Z,81.14
2019-04-04T12:09:07.235Z,80.93
2019-04-04T12:10:08.197Z,80.46
2019-04-04T12:11:07.179Z,81.18
2019-04-04T12:12:07.167Z,82.51
2019-04-04T12:13:07.171Z,82.47
2019-04-04T12:14:07.169Z,82.31
2019-04-04T12:15:07.160Z,83.03
2019-04-04T12:16:07.126Z,82.20
2019-04-04T12:17:07.122Z,83.33
2019-04-04T12:18:07.097Z,82.71
2019-04-04T12:19:07.117Z,83.85
2019-04-04T12:20:07.075Z,82.92
2019-04-04T12:21:07.064Z,81.59
2019-04-04T12:22:07.052Z,82.41
2019-04-04T12:23:07.100Z,81.07
2019-04-04T12:24:07.070Z,81.90
2019-04-04T12:25:07.018Z,82.62
2019-04-04T12:26:07.014Z,81.42
2019-04-04T12:27:06.995Z,81.42
2019-04-04T12:28:06.993Z,81.93
2019-04-04T12:29:06.976Z,81.11
2019-04-04T12:30:06.992Z,81.42
2019-04-04T12:31:07.032Z,82.65
2019-04-04T12:32:06.939Z,81.11
2019-04-04T12:33:06.936Z,80.49
2019-04-04T12:34:06.930Z,81.42
2019-04-04T12:35:06.929Z,82.34
2019-04-04T12:36:06.908Z,81.21
2019-04-04T12:37:06.885Z,81.42
2019-04-04T12:38:06.872Z,82.24
2019-04-04T12:39:06.877Z,81.21
2019-04-04T12:40:19.481Z,81.11
2019-04-04T12:41:07.843Z,80.91
2019-04-04T12:42:06.826Z,82.14
2019-04-04T12:43:06.817Z,81.83
2019-04-04T12:44:06.808Z,81.83
2019-04-04T12:45:06.855Z,81.21
2019-04-04T12:46:06.780Z,81.42
2019-04-04T12:47:06.772Z,80.39
2019-04-04T12:48:09.171Z,80.94
2019-04-04T12:49:06.759Z,81.42
2019-04-04T12:50:06.759Z,82.86
2019-04-04T12:51:06.733Z,82.04
2019-04-04T12:52:06.714Z,82.24